Scala — A8HS9 — position and weather

sailwx.info

Track history (hours):
 
Tides and Currents Weather Stations Pressure Air Temp Water Temp Dewpoint Dewpoint Depression Visibility Wind Speed Wind Dir Waves Ship Positions

Scala

Last reported at 2018-Jul-17 02:44 UTC. Time now 2018-Jul-21 11:30 UTC.
Position N 44°14' E 013°54'.

Length 115 m; draft 3.6 m.

Type: Cargo ship. MMSI: 636012769.

Date/timePositionNaut miles runAvg speedWind from/ knotsBaromVisibWave heightAir tempDewpointWater temp
2018-Jul-17 02:44N 44°14' E 013°54'16 9.5
2018-Jul-17 01:04N 44°28' E 013°42'1 9.2
2018-Jul-17 01:00N 44°28' E 013°42'5 8.9
2018-Jul-17 00:29N 44°32' E 013°38'8 8.5
2018-Jul-16 23:30N 44°39' E 013°32'4 8.8
2018-Jul-16 23:00N 44°43' E 013°28'4 8.7
2018-Jul-16 22:30N 44°46' E 013°25'5 9.3
2018-Jul-16 22:00N 44°50' E 013°21'5 9.5
2018-Jul-16 21:30N 44°54' E 013°18'5 9.4
2018-Jul-16 21:00N 44°58' E 013°14'5 9.1
2018-Jul-16 20:30N 45°02' E 013°10'5 9.0
2018-Jul-16 20:00N 45°06' E 013°07'4 8.7
2018-Jul-16 19:30N 45°10' E 013°04'5 8.9
2018-Jul-16 19:00N 45°14' E 013°03'4 8.7
2018-Jul-16 18:30N 45°18' E 013°02'4 8.0
2018-Jul-16 18:00N 45°22' E 013°01'4 7.8
2018-Jul-16 17:30N 45°25' E 013°05'4 8.7
2018-Jul-16 17:00N 45°28' E 013°09'4 8.9
2018-Jul-16 16:30N 45°31' E 013°14'4 8.6
2018-Jul-16 16:00N 45°34' E 013°18'4 9.0
2018-Jul-16 15:30N 45°36' E 013°24'4 8.8
2018-Jul-16 15:00N 45°37' E 013°30'4 8.9
2018-Jul-16 14:30N 45°39' E 013°36'4 8.6
2018-Jul-16 14:00N 45°39' E 013°42'2 4.6
2018-Jul-16 13:30N 45°38' E 013°45'0 0.0
2018-Jul-16 13:00N 45°38' E 013°45'0 0.0
2018-Jul-16 12:30N 45°38' E 013°45'0 0.0
2018-Jul-16 12:00N 45°38' E 013°45'0 0.0
2018-Jul-16 11:27N 45°38' E 013°45'0 0.0
2018-Jul-16 11:00N 45°38' E 013°45'0 0.0
2018-Jul-16 10:30N 45°38' E 013°45'0 0.0
2018-Jul-16 09:57N 45°38' E 013°45'0 0.0
2018-Jul-16 09:30N 45°38' E 013°45'0 0.0
2018-Jul-16 08:57N 45°38' E 013°45'0 0.0
2018-Jul-16 08:30N 45°38' E 013°45'0 0.0
2018-Jul-16 08:00N 45°38' E 013°45'0 0.0
2018-Jul-16 07:30N 45°38' E 013°45'0 0.0
2018-Jul-16 06:54N 45°38' E 013°45'0 0.0
2018-Jul-16 06:30N 45°38' E 013°45'0 0.0
2018-Jul-16 06:00N 45°38' E 013°45'0 0.0
2018-Jul-16 05:30N 45°38' E 013°45'0 0.0
2018-Jul-16 05:00N 45°38' E 013°45'0 0.0
2018-Jul-16 04:30N 45°38' E 013°45'0 0.0
2018-Jul-16 03:54N 45°38' E 013°45'0 0.0
2018-Jul-16 03:30N 45°38' E 013°45'0 0.0
2018-Jul-16 03:00N 45°38' E 013°45'0 0.0
2018-Jul-16 02:27N 45°38' E 013°45'0 0.0
2018-Jul-16 01:57N 45°38' E 013°45'0 0.0
2018-Jul-16 01:30N 45°38' E 013°45'0 0.0
2018-Jul-16 00:54N 45°38' E 013°45'0 0.0
2018-Jul-16 00:30N 45°38' E 013°45'0 0.0
2018-Jul-16 00:00N 45°38' E 013°45'0 0.0
2018-Jul-15 23:30N 45°38' E 013°45'0 0.0
2018-Jul-15 23:00N 45°38' E 013°45'0 0.0
2018-Jul-15 22:30N 45°38' E 013°45'0 0.0
2018-Jul-15 22:00N 45°38' E 013°45'0 0.0
2018-Jul-15 21:30N 45°38' E 013°45'0 0.0
2018-Jul-15 21:00N 45°38' E 013°45'0 0.0
2018-Jul-15 20:30N 45°38' E 013°45'0 0.0
2018-Jul-15 20:00N 45°38' E 013°45'0 0.0
2018-Jul-15 19:30N 45°38' E 013°45'0 0.0
2018-Jul-15 18:57N 45°38' E 013°45'0 0.0
2018-Jul-15 18:30N 45°38' E 013°45'0 0.0
2018-Jul-15 18:00N 45°38' E 013°45'0 0.0
2018-Jul-15 17:27N 45°38' E 013°45'0 0.0
2018-Jul-15 17:00N 45°38' E 013°45'0 0.0
2018-Jul-15 16:24N 45°38' E 013°45'0 0.0
2018-Jul-15 15:51N 45°38' E 013°45'0 0.0
2018-Jul-15 15:27N 45°38' E 013°45'0 0.0
2018-Jul-15 15:00N 45°38' E 013°45'0 0.0
2018-Jul-15 14:24N 45°38' E 013°45'0 0.0
2018-Jul-15 14:00N 45°38' E 013°45'0 0.0
2018-Jul-15 13:30N 45°38' E 013°45'0 0.0
2018-Jul-15 13:00N 45°38' E 013°45'0 0.0
2018-Jul-15 12:30N 45°38' E 013°45'0 0.0
2018-Jul-15 12:00N 45°38' E 013°45'0 0.0
2018-Jul-15 11:30N 45°38' E 013°45'0 0.0
2018-Jul-15 11:00N 45°38' E 013°45'0 0.0
2018-Jul-15 10:30N 45°38' E 013°45'0 0.0
2018-Jul-15 10:00N 45°38' E 013°45'0 0.0
2018-Jul-15 09:30N 45°38' E 013°45'0 0.0
2018-Jul-15 09:00N 45°38' E 013°45'0 0.0
2018-Jul-15 08:30N 45°38' E 013°45'0 0.0
2018-Jul-15 08:00N 45°38' E 013°45'0 0.0
2018-Jul-15 07:30N 45°38' E 013°45'0 0.0
2018-Jul-15 07:00N 45°38' E 013°45'0 0.0
2018-Jul-15 06:30N 45°38' E 013°45'0 0.0
2018-Jul-15 05:57N 45°38' E 013°45'0 0.0
2018-Jul-15 05:30N 45°38' E 013°45'0 0.0
2018-Jul-15 05:00N 45°38' E 013°45'0 0.0
2018-Jul-15 04:30N 45°38' E 013°45'0 0.0
2018-Jul-15 03:57N 45°38' E 013°45'0 0.0
2018-Jul-15 03:29N 45°38' E 013°45'0 0.0
2018-Jul-15 02:56N 45°38' E 013°45'0 0.0
2018-Jul-15 02:23N 45°38' E 013°45'0 0.0
2018-Jul-15 01:59N 45°38' E 013°45'0 0.0
2018-Jul-15 01:29N 45°38' E 013°45'0 0.0
2018-Jul-15 00:56N 45°38' E 013°45'0 0.0
2018-Jul-15 00:26N 45°38' E 013°45'0 0.0
2018-Jul-14 23:59N 45°38' E 013°45'0 0.0
2018-Jul-14 23:26N 45°38' E 013°45'0 0.0
2018-Jul-14 22:56N 45°38' E 013°45'0 0.0
2018-Jul-14 22:29N 45°38' E 013°45'0 0.0
2018-Jul-14 21:59N 45°38' E 013°45'0 0.0
2018-Jul-14 21:29N 45°38' E 013°45'0 0.0
2018-Jul-14 20:59N 45°38' E 013°45'0 0.0
2018-Jul-14 20:29N 45°38' E 013°45'0 0.0
2018-Jul-14 19:59N 45°38' E 013°45'0 0.0
2018-Jul-14 19:26N 45°38' E 013°45'0 0.0
2018-Jul-14 18:59N 45°38' E 013°45'0 0.0
2018-Jul-14 18:26N 45°38' E 013°45'0 0.0
2018-Jul-14 17:56N 45°38' E 013°45'0 0.0
2018-Jul-14 17:26N 45°38' E 013°45'0 0.0
2018-Jul-14 16:59N 45°38' E 013°45'0 0.0
2018-Jul-14 16:29N 45°38' E 013°45'0 0.0
2018-Jul-14 15:59N 45°38' E 013°45'0 0.0
2018-Jul-14 15:29N 45°38' E 013°45'0 0.0
2018-Jul-14 14:59N 45°38' E 013°45'0 0.0
2018-Jul-14 14:29N 45°38' E 013°45'0 0.0
2018-Jul-14 13:26N 45°38' E 013°45'0 0.0
2018-Jul-14 12:56N 45°38' E 013°45'0 0.0
2018-Jul-14 12:29N 45°38' E 013°45'0 0.0
2018-Jul-14 11:59N 45°38' E 013°45'0 0.0
2018-Jul-14 11:29N 45°38' E 013°45'0 0.0
2018-Jul-14 10:56N 45°38' E 013°45'0 0.0
2018-Jul-14 10:26N 45°38' E 013°45'0 0.0
2018-Jul-14 09:59N 45°38' E 013°45'0 0.0
2018-Jul-14 09:29N 45°38' E 013°45'0 0.0
2018-Jul-14 08:59N 45°38' E 013°45'0 0.0
2018-Jul-14 08:23N 45°38' E 013°45'0 0.0
2018-Jul-14 07:53N 45°38' E 013°45'0 0.0
2018-Jul-14 07:29N 45°38' E 013°45'0 0.0
2018-Jul-14 06:59N 45°38' E 013°45'0 0.0
2018-Jul-14 06:26N 45°38' E 013°45'0 0.0
2018-Jul-14 05:59N 45°38' E 013°45'0 0.0
2018-Jul-14 05:29N 45°38' E 013°45'0 0.0
2018-Jul-14 04:56N 45°38' E 013°45'0 0.0
2018-Jul-14 04:26N 45°38' E 013°45'0 0.0
2018-Jul-14 03:41N 45°38' E 013°45'0 0.0
2018-Jul-14 03:23N 45°38' E 013°45'0 0.0
2018-Jul-14 02:59N 45°38' E 013°45'0 0.0
2018-Jul-14 02:29N 45°38' E 013°45'0 0.0
2018-Jul-14 01:53N 45°38' E 013°45'0 0.0
2018-Jul-14 01:26N 45°38' E 013°45'0 0.0
2018-Jul-14 00:59N 45°38' E 013°45'0 0.0
2018-Jul-14 00:29N 45°38' E 013°45'0 0.0
2018-Jul-13 23:53N 45°38' E 013°45'0 0.0
2018-Jul-13 23:29N 45°38' E 013°45'0 0.0
2018-Jul-13 22:53N 45°38' E 013°45'0 0.0
2018-Jul-13 22:29N 45°38' E 013°45'0 0.0
2018-Jul-13 21:59N 45°38' E 013°45'0 0.0
2018-Jul-13 21:29N 45°38' E 013°45'0 0.0
2018-Jul-13 20:59N 45°38' E 013°45'0 0.0
2018-Jul-13 20:29N 45°38' E 013°45'0 0.0
2018-Jul-13 19:59N 45°38' E 013°45'0 0.0
2018-Jul-13 19:20N 45°38' E 013°45'0 0.0
2018-Jul-13 18:59N 45°38' E 013°45'0 0.0
2018-Jul-13 18:23N 45°38' E 013°45'0 0.0
2018-Jul-13 17:59N 45°38' E 013°45'0 0.0
2018-Jul-13 17:29N 45°38' E 013°45'0 0.0
2018-Jul-13 16:59N 45°38' E 013°45'0 0.0
2018-Jul-13 16:29N 45°38' E 013°45'0 0.0
2018-Jul-13 15:59N 45°38' E 013°45'0 0.0
2018-Jul-13 15:29N 45°38' E 013°45'0 0.0
2018-Jul-13 14:59N 45°38' E 013°45'0 0.0
2018-Jul-13 14:29N 45°38' E 013°45'0 0.0
2018-Jul-13 13:29N 45°38' E 013°45'0 0.0
2018-Jul-13 12:59N 45°38' E 013°45'0 0.0
2018-Jul-13 12:29N 45°38' E 013°45'0 0.0
2018-Jul-13 11:59N 45°38' E 013°45'0 0.0
2018-Jul-13 11:29N 45°38' E 013°45'0 0.0
2018-Jul-13 10:53N 45°38' E 013°45'0 0.0
2018-Jul-13 10:29N 45°38' E 013°45'0 0.0
2018-Jul-13 09:59N 45°38' E 013°45'0 0.0
2018-Jul-13 09:29N 45°38' E 013°45'0 0.0
2018-Jul-13 08:59N 45°38' E 013°45'0 0.0
2018-Jul-13 08:26N 45°38' E 013°45'0 0.0
2018-Jul-13 07:59N 45°38' E 013°45'0 0.0
2018-Jul-13 07:29N 45°38' E 013°45'0 0.0
2018-Jul-13 06:59N 45°38' E 013°45'0 0.0
2018-Jul-13 06:29N 45°38' E 013°45'0 0.0
2018-Jul-13 05:59N 45°38' E 013°45'0 0.0
2018-Jul-13 05:29N 45°38' E 013°45'0 0.0
2018-Jul-13 04:59N 45°38' E 013°45'0 0.0
2018-Jul-13 04:29N 45°38' E 013°45'0 0.0
2018-Jul-13 03:59N 45°38' E 013°45'0 0.0
2018-Jul-13 03:29N 45°38' E 013°45'0 0.0
2018-Jul-13 02:59N 45°38' E 013°45'0 0.0
2018-Jul-13 02:26N 45°38' E 013°45'0 0.0
2018-Jul-13 01:59N 45°38' E 013°45'0 0.0
2018-Jul-13 01:29N 45°38' E 013°45'0 0.0
2018-Jul-13 00:59N 45°38' E 013°45'0 0.0
2018-Jul-13 00:29N 45°38' E 013°45'0 0.0
2018-Jul-12 23:56N 45°38' E 013°45'0 0.0
2018-Jul-12 23:29N 45°38' E 013°45'0 0.0
2018-Jul-12 22:59N 45°38' E 013°45'0 0.0
2018-Jul-12 22:26N 45°38' E 013°45'0 0.0
2018-Jul-12 21:59N 45°38' E 013°45'0 0.0
2018-Jul-12 21:29N 45°38' E 013°45'0 0.0
2018-Jul-12 20:59N 45°38' E 013°45'0 0.0
2018-Jul-12 20:29N 45°38' E 013°45'0 0.0
2018-Jul-12 19:59N 45°38' E 013°45'0 0.0
2018-Jul-12 19:29N 45°38' E 013°45'0 0.0
2018-Jul-12 18:56N 45°38' E 013°45'0 0.0
2018-Jul-12 18:29N 45°38' E 013°45'0 0.0
2018-Jul-12 17:59N 45°38' E 013°45'0 0.0
2018-Jul-12 17:29N 45°38' E 013°45'0 0.0
2018-Jul-12 16:59N 45°38' E 013°45'0 0.0
2018-Jul-12 16:29N 45°38' E 013°45'0 1.0
2018-Jul-12 16:00N 45°38' E 013°45'2 3.2
2018-Jul-12 15:30N 45°40' E 013°44'0 0.0
2018-Jul-12 14:56N 45°40' E 013°44'0 0.0
2018-Jul-12 14:26N 45°40' E 013°44'0 0.0
2018-Jul-12 13:59N 45°40' E 013°44'0 0.0
2018-Jul-12 13:26N 45°40' E 013°44'0 0.0
2018-Jul-12 12:59N 45°40' E 013°44'0 0.0
2018-Jul-12 12:29N 45°40' E 013°44'0 0.0
2018-Jul-12 11:59N 45°40' E 013°44'0 0.0
2018-Jul-12 11:29N 45°40' E 013°44'0 0.0
2018-Jul-12 10:59N 45°40' E 013°44'0 0.0
2018-Jul-12 10:29N 45°40' E 013°44'0 0.0
2018-Jul-12 09:59N 45°40' E 013°44'0 0.1
2018-Jul-12 09:29N 45°40' E 013°44'0 0.1
2018-Jul-12 08:59N 45°40' E 013°44'0 0.0
2018-Jul-12 08:26N 45°40' E 013°44'0 0.0
2018-Jul-12 07:59N 45°40' E 013°44'0 0.0
2018-Jul-12 07:26N 45°40' E 013°44'0 0.0
2018-Jul-12 06:59N 45°40' E 013°44'0 0.0
2018-Jul-12 06:26N 45°40' E 013°44'0 0.0
2018-Jul-12 05:59N 45°40' E 013°44'0 0.0
2018-Jul-12 05:17N 45°40' E 013°44'0 0.0
2018-Jul-12 04:59N 45°40' E 013°44'0 0.0
2018-Jul-12 04:29N 45°40' E 013°44'0 0.1
2018-Jul-12 03:59N 45°40' E 013°44'1 1.2
2018-Jul-12 03:31N 45°39' E 013°43'3 5.9
2018-Jul-12 03:00N 45°38' E 013°39'4 8.2
2018-Jul-12 02:31N 45°36' E 013°34'4 8.5
2018-Jul-12 02:00N 45°34' E 013°29'4 8.2
2018-Jul-12 01:31N 45°31' E 013°24'4 7.3
2018-Jul-12 01:01N 45°29' E 013°20'4 7.4
2018-Jul-12 00:30N 45°27' E 013°16'4 7.3
2018-Jul-12 00:00N 45°25' E 013°11'3 5.9
2018-Jul-11 23:30N 45°22' E 013°09'4 7.5
2018-Jul-11 23:01N 45°19' E 013°11'4 7.7
2018-Jul-11 22:30N 45°15' E 013°12'4 7.9
2018-Jul-11 22:00N 45°11' E 013°13'4 7.8
2018-Jul-11 21:30N 45°07' E 013°14'4 7.5
2018-Jul-11 21:00N 45°04' E 013°16'4 7.6
2018-Jul-11 20:31N 45°01' E 013°19'4 7.6
2018-Jul-11 20:00N 44°57' E 013°22'4 7.8
2018-Jul-11 19:30N 44°54' E 013°25'4 8.1
2018-Jul-11 19:00N 44°51' E 013°28'4 8.0
2018-Jul-11 18:30N 44°47' E 013°31'4 7.9
2018-Jul-11 18:00N 44°44' E 013°34'4 7.9
2018-Jul-11 17:30N 44°41' E 013°37'4 7.6
2018-Jul-11 17:00N 44°37' E 013°39'4 7.2
2018-Jul-11 16:29N 44°34' E 013°42'3 7.2
2018-Jul-11 16:00N 44°31' E 013°45'5 7.3
2018-Jul-11 15:18N 44°27' E 013°49'2 7.6
2018-Jul-11 15:00N 44°25' E 013°50'4 7.5
2018-Jul-11 14:30N 44°22' E 013°53'4 7.3
2018-Jul-11 14:01N 44°19' E 013°56'4 7.3
2018-Jul-11 13:31N 44°16' E 013°59'4 7.4
2018-Jul-11 13:00N 44°13' E 014°02'4 7.5
2018-Jul-11 12:30N 44°10' E 014°05'7 7.6
2018-Jul-11 11:33N 44°04' E 014°11'1 7.6
2018-Jul-11 11:25N 44°03' E 014°12'3 7.6
2018-Jul-11 11:01N 44°01' E 014°14'  
2018-Jul-07 12:57N 37°03' E 023°32'4 8.3
2018-Jul-07 12:30N 37°06' E 023°35'10 8.6
2018-Jul-07 11:19N 37°14' E 023°43'  
Track history (hours):
 
Tides and Currents Weather Stations Pressure Air Temp Water Temp Dewpoint Dewpoint Depression Visibility Wind Speed Wind Dir Waves Ship Positions

Scala

Last reported at 2018-Jul-17 02:44 UTC. Time now 2018-Jul-21 11:30 UTC.
Position N 44°14' E 013°54'.

Length 115 m; draft 3.6 m.

Type: Cargo ship. MMSI: 636012769.

Date/timePositionNaut miles runAvg speedWind from/ knotsBaromVisibWave heightAir tempDewpointWater temp
2018-Jul-17 02:44N 44°14' E 013°54'16 9.5
2018-Jul-17 01:04N 44°28' E 013°42'1 9.2
2018-Jul-17 01:00N 44°28' E 013°42'5 8.9
2018-Jul-17 00:29N 44°32' E 013°38'8 8.5
2018-Jul-16 23:30N 44°39' E 013°32'4 8.8
2018-Jul-16 23:00N 44°43' E 013°28'4 8.7
2018-Jul-16 22:30N 44°46' E 013°25'5 9.3
2018-Jul-16 22:00N 44°50' E 013°21'5 9.5
2018-Jul-16 21:30N 44°54' E 013°18'5 9.4
2018-Jul-16 21:00N 44°58' E 013°14'5 9.1
2018-Jul-16 20:30N 45°02' E 013°10'5 9.0
2018-Jul-16 20:00N 45°06' E 013°07'4 8.7
2018-Jul-16 19:30N 45°10' E 013°04'5 8.9
2018-Jul-16 19:00N 45°14' E 013°03'4 8.7
2018-Jul-16 18:30N 45°18' E 013°02'4 8.0
2018-Jul-16 18:00N 45°22' E 013°01'4 7.8
2018-Jul-16 17:30N 45°25' E 013°05'4 8.7
2018-Jul-16 17:00N 45°28' E 013°09'4 8.9
2018-Jul-16 16:30N 45°31' E 013°14'4 8.6
2018-Jul-16 16:00N 45°34' E 013°18'4 9.0
2018-Jul-16 15:30N 45°36' E 013°24'4 8.8
2018-Jul-16 15:00N 45°37' E 013°30'4 8.9
2018-Jul-16 14:30N 45°39' E 013°36'4 8.6
2018-Jul-16 14:00N 45°39' E 013°42'2 4.6
2018-Jul-16 13:30N 45°38' E 013°45'0 0.0
2018-Jul-16 13:00N 45°38' E 013°45'0 0.0
2018-Jul-16 12:30N 45°38' E 013°45'0 0.0
2018-Jul-16 12:00N 45°38' E 013°45'0 0.0
2018-Jul-16 11:27N 45°38' E 013°45'0 0.0
2018-Jul-16 11:00N 45°38' E 013°45'0 0.0
2018-Jul-16 10:30N 45°38' E 013°45'0 0.0
2018-Jul-16 09:57N 45°38' E 013°45'0 0.0
2018-Jul-16 09:30N 45°38' E 013°45'0 0.0
2018-Jul-16 08:57N 45°38' E 013°45'0 0.0
2018-Jul-16 08:30N 45°38' E 013°45'0 0.0
2018-Jul-16 08:00N 45°38' E 013°45'0 0.0
2018-Jul-16 07:30N 45°38' E 013°45'0 0.0
2018-Jul-16 06:54N 45°38' E 013°45'0 0.0
2018-Jul-16 06:30N 45°38' E 013°45'0 0.0
2018-Jul-16 06:00N 45°38' E 013°45'0 0.0
2018-Jul-16 05:30N 45°38' E 013°45'0 0.0
2018-Jul-16 05:00N 45°38' E 013°45'0 0.0
2018-Jul-16 04:30N 45°38' E 013°45'0 0.0
2018-Jul-16 03:54N 45°38' E 013°45'0 0.0
2018-Jul-16 03:30N 45°38' E 013°45'0 0.0
2018-Jul-16 03:00N 45°38' E 013°45'0 0.0
2018-Jul-16 02:27N 45°38' E 013°45'0 0.0
2018-Jul-16 01:57N 45°38' E 013°45'0 0.0
2018-Jul-16 01:30N 45°38' E 013°45'0 0.0
2018-Jul-16 00:54N 45°38' E 013°45'0 0.0
2018-Jul-16 00:30N 45°38' E 013°45'0 0.0
2018-Jul-16 00:00N 45°38' E 013°45'0 0.0
2018-Jul-15 23:30N 45°38' E 013°45'0 0.0
2018-Jul-15 23:00N 45°38' E 013°45'0 0.0
2018-Jul-15 22:30N 45°38' E 013°45'0 0.0
2018-Jul-15 22:00N 45°38' E 013°45'0 0.0
2018-Jul-15 21:30N 45°38' E 013°45'0 0.0
2018-Jul-15 21:00N 45°38' E 013°45'0 0.0
2018-Jul-15 20:30N 45°38' E 013°45'0 0.0
2018-Jul-15 20:00N 45°38' E 013°45'0 0.0
2018-Jul-15 19:30N 45°38' E 013°45'0 0.0
2018-Jul-15 18:57N 45°38' E 013°45'0 0.0
2018-Jul-15 18:30N 45°38' E 013°45'0 0.0
2018-Jul-15 18:00N 45°38' E 013°45'0 0.0
2018-Jul-15 17:27N 45°38' E 013°45'0 0.0
2018-Jul-15 17:00N 45°38' E 013°45'0 0.0
2018-Jul-15 16:24N 45°38' E 013°45'0 0.0
2018-Jul-15 15:51N 45°38' E 013°45'0 0.0
2018-Jul-15 15:27N 45°38' E 013°45'0 0.0
2018-Jul-15 15:00N 45°38' E 013°45'0 0.0
2018-Jul-15 14:24N 45°38' E 013°45'0 0.0
2018-Jul-15 14:00N 45°38' E 013°45'0 0.0
2018-Jul-15 13:30N 45°38' E 013°45'0 0.0
2018-Jul-15 13:00N 45°38' E 013°45'0 0.0
2018-Jul-15 12:30N 45°38' E 013°45'0 0.0
2018-Jul-15 12:00N 45°38' E 013°45'0 0.0
2018-Jul-15 11:30N 45°38' E 013°45'0 0.0
2018-Jul-15 11:00N 45°38' E 013°45'0 0.0
2018-Jul-15 10:30N 45°38' E 013°45'0 0.0
2018-Jul-15 10:00N 45°38' E 013°45'0 0.0
2018-Jul-15 09:30N 45°38' E 013°45'0 0.0
2018-Jul-15 09:00N 45°38' E 013°45'0 0.0
2018-Jul-15 08:30N 45°38' E 013°45'0 0.0
2018-Jul-15 08:00N 45°38' E 013°45'0 0.0
2018-Jul-15 07:30N 45°38' E 013°45'0 0.0
2018-Jul-15 07:00N 45°38' E 013°45'0 0.0
2018-Jul-15 06:30N 45°38' E 013°45'0 0.0
2018-Jul-15 05:57N 45°38' E 013°45'0 0.0
2018-Jul-15 05:30N 45°38' E 013°45'0 0.0
2018-Jul-15 05:00N 45°38' E 013°45'0 0.0
2018-Jul-15 04:30N 45°38' E 013°45'0 0.0
2018-Jul-15 03:57N 45°38' E 013°45'0 0.0
2018-Jul-15 03:29N 45°38' E 013°45'0 0.0
2018-Jul-15 02:56N 45°38' E 013°45'0 0.0
2018-Jul-15 02:23N 45°38' E 013°45'0 0.0
2018-Jul-15 01:59N 45°38' E 013°45'0 0.0
2018-Jul-15 01:29N 45°38' E 013°45'0 0.0
2018-Jul-15 00:56N 45°38' E 013°45'0 0.0
2018-Jul-15 00:26N 45°38' E 013°45'0 0.0
2018-Jul-14 23:59N 45°38' E 013°45'0 0.0
2018-Jul-14 23:26N 45°38' E 013°45'0 0.0
2018-Jul-14 22:56N 45°38' E 013°45'0 0.0
2018-Jul-14 22:29N 45°38' E 013°45'0 0.0
2018-Jul-14 21:59N 45°38' E 013°45'0 0.0
2018-Jul-14 21:29N 45°38' E 013°45'0 0.0
2018-Jul-14 20:59N 45°38' E 013°45'0 0.0
2018-Jul-14 20:29N 45°38' E 013°45'0 0.0
2018-Jul-14 19:59N 45°38' E 013°45'0 0.0
2018-Jul-14 19:26N 45°38' E 013°45'0 0.0
2018-Jul-14 18:59N 45°38' E 013°45'0 0.0
2018-Jul-14 18:26N 45°38' E 013°45'0 0.0
2018-Jul-14 17:56N 45°38' E 013°45'0 0.0
2018-Jul-14 17:26N 45°38' E 013°45'0 0.0
2018-Jul-14 16:59N 45°38' E 013°45'0 0.0
2018-Jul-14 16:29N 45°38' E 013°45'0 0.0
2018-Jul-14 15:59N 45°38' E 013°45'0 0.0
2018-Jul-14 15:29N 45°38' E 013°45'0 0.0
2018-Jul-14 14:59N 45°38' E 013°45'0 0.0
2018-Jul-14 14:29N 45°38' E 013°45'0 0.0
2018-Jul-14 13:26N 45°38' E 013°45'0 0.0
2018-Jul-14 12:56N 45°38' E 013°45'0 0.0
2018-Jul-14 12:29N 45°38' E 013°45'0 0.0
2018-Jul-14 11:59N 45°38' E 013°45'0 0.0
2018-Jul-14 11:29N 45°38' E 013°45'0 0.0
2018-Jul-14 10:56N 45°38' E 013°45'0 0.0
2018-Jul-14 10:26N 45°38' E 013°45'0 0.0
2018-Jul-14 09:59N 45°38' E 013°45'0 0.0
2018-Jul-14 09:29N 45°38' E 013°45'0 0.0
2018-Jul-14 08:59N 45°38' E 013°45'0 0.0
2018-Jul-14 08:23N 45°38' E 013°45'0 0.0
2018-Jul-14 07:53N 45°38' E 013°45'0 0.0
2018-Jul-14 07:29N 45°38' E 013°45'0 0.0
2018-Jul-14 06:59N 45°38' E 013°45'0 0.0
2018-Jul-14 06:26N 45°38' E 013°45'0 0.0
2018-Jul-14 05:59N 45°38' E 013°45'0 0.0
2018-Jul-14 05:29N 45°38' E 013°45'0 0.0
2018-Jul-14 04:56N 45°38' E 013°45'0 0.0
2018-Jul-14 04:26N 45°38' E 013°45'0 0.0
2018-Jul-14 03:41N 45°38' E 013°45'0 0.0
2018-Jul-14 03:23N 45°38' E 013°45'0 0.0
2018-Jul-14 02:59N 45°38' E 013°45'0 0.0
2018-Jul-14 02:29N 45°38' E 013°45'0 0.0
2018-Jul-14 01:53N 45°38' E 013°45'0 0.0
2018-Jul-14 01:26N 45°38' E 013°45'0 0.0
2018-Jul-14 00:59N 45°38' E 013°45'0 0.0
2018-Jul-14 00:29N 45°38' E 013°45'0 0.0
2018-Jul-13 23:53N 45°38' E 013°45'0 0.0
2018-Jul-13 23:29N 45°38' E 013°45'0 0.0
2018-Jul-13 22:53N 45°38' E 013°45'0 0.0
2018-Jul-13 22:29N 45°38' E 013°45'0 0.0
2018-Jul-13 21:59N 45°38' E 013°45'0 0.0
2018-Jul-13 21:29N 45°38' E 013°45'0 0.0
2018-Jul-13 20:59N 45°38' E 013°45'0 0.0
2018-Jul-13 20:29N 45°38' E 013°45'0 0.0
2018-Jul-13 19:59N 45°38' E 013°45'0 0.0
2018-Jul-13 19:20N 45°38' E 013°45'0 0.0
2018-Jul-13 18:59N 45°38' E 013°45'0 0.0
2018-Jul-13 18:23N 45°38' E 013°45'0 0.0
2018-Jul-13 17:59N 45°38' E 013°45'0 0.0
2018-Jul-13 17:29N 45°38' E 013°45'0 0.0
2018-Jul-13 16:59N 45°38' E 013°45'0 0.0
2018-Jul-13 16:29N 45°38' E 013°45'0 0.0
2018-Jul-13 15:59N 45°38' E 013°45'0 0.0
2018-Jul-13 15:29N 45°38' E 013°45'0 0.0
2018-Jul-13 14:59N 45°38' E 013°45'0 0.0
2018-Jul-13 14:29N 45°38' E 013°45'0 0.0
2018-Jul-13 13:29N 45°38' E 013°45'0 0.0
2018-Jul-13 12:59N 45°38' E 013°45'0 0.0
2018-Jul-13 12:29N 45°38' E 013°45'0 0.0
2018-Jul-13 11:59N 45°38' E 013°45'0 0.0
2018-Jul-13 11:29N 45°38' E 013°45'0 0.0
2018-Jul-13 10:53N 45°38' E 013°45'0 0.0
2018-Jul-13 10:29N 45°38' E 013°45'0 0.0
2018-Jul-13 09:59N 45°38' E 013°45'0 0.0
2018-Jul-13 09:29N 45°38' E 013°45'0 0.0
2018-Jul-13 08:59N 45°38' E 013°45'0 0.0
2018-Jul-13 08:26N 45°38' E 013°45'0 0.0
2018-Jul-13 07:59N 45°38' E 013°45'0 0.0
2018-Jul-13 07:29N 45°38' E 013°45'0 0.0
2018-Jul-13 06:59N 45°38' E 013°45'0 0.0
2018-Jul-13 06:29N 45°38' E 013°45'0 0.0
2018-Jul-13 05:59N 45°38' E 013°45'0 0.0
2018-Jul-13 05:29N 45°38' E 013°45'0 0.0
2018-Jul-13 04:59N 45°38' E 013°45'0 0.0
2018-Jul-13 04:29N 45°38' E 013°45'0 0.0
2018-Jul-13 03:59N 45°38' E 013°45'0 0.0
2018-Jul-13 03:29N 45°38' E 013°45'0 0.0
2018-Jul-13 02:59N 45°38' E 013°45'0 0.0
2018-Jul-13 02:26N 45°38' E 013°45'0 0.0
2018-Jul-13 01:59N 45°38' E 013°45'0 0.0
2018-Jul-13 01:29N 45°38' E 013°45'0 0.0
2018-Jul-13 00:59N 45°38' E 013°45'0 0.0
2018-Jul-13 00:29N 45°38' E 013°45'0 0.0
2018-Jul-12 23:56N 45°38' E 013°45'0 0.0
2018-Jul-12 23:29N 45°38' E 013°45'0 0.0
2018-Jul-12 22:59N 45°38' E 013°45'0 0.0
2018-Jul-12 22:26N 45°38' E 013°45'0 0.0
2018-Jul-12 21:59N 45°38' E 013°45'0 0.0
2018-Jul-12 21:29N 45°38' E 013°45'0 0.0
2018-Jul-12 20:59N 45°38' E 013°45'0 0.0
2018-Jul-12 20:29N 45°38' E 013°45'0 0.0
2018-Jul-12 19:59N 45°38' E 013°45'0 0.0
2018-Jul-12 19:29N 45°38' E 013°45'0 0.0
2018-Jul-12 18:56N 45°38' E 013°45'0 0.0
2018-Jul-12 18:29N 45°38' E 013°45'0 0.0
2018-Jul-12 17:59N 45°38' E 013°45'0 0.0
2018-Jul-12 17:29N 45°38' E 013°45'0 0.0
2018-Jul-12 16:59N 45°38' E 013°45'0 0.0
2018-Jul-12 16:29N 45°38' E 013°45'0 1.0
2018-Jul-12 16:00N 45°38' E 013°45'2 3.2
2018-Jul-12 15:30N 45°40' E 013°44'0 0.0
2018-Jul-12 14:56N 45°40' E 013°44'0 0.0
2018-Jul-12 14:26N 45°40' E 013°44'0 0.0
2018-Jul-12 13:59N 45°40' E 013°44'0 0.0
2018-Jul-12 13:26N 45°40' E 013°44'0 0.0
2018-Jul-12 12:59N 45°40' E 013°44'0 0.0
2018-Jul-12 12:29N 45°40' E 013°44'0 0.0
2018-Jul-12 11:59N 45°40' E 013°44'0 0.0
2018-Jul-12 11:29N 45°40' E 013°44'0 0.0
2018-Jul-12 10:59N 45°40' E 013°44'0 0.0
2018-Jul-12 10:29N 45°40' E 013°44'0 0.0
2018-Jul-12 09:59N 45°40' E 013°44'0 0.1
2018-Jul-12 09:29N 45°40' E 013°44'0 0.1
2018-Jul-12 08:59N 45°40' E 013°44'0 0.0
2018-Jul-12 08:26N 45°40' E 013°44'0 0.0
2018-Jul-12 07:59N 45°40' E 013°44'0 0.0
2018-Jul-12 07:26N 45°40' E 013°44'0 0.0
2018-Jul-12 06:59N 45°40' E 013°44'0 0.0
2018-Jul-12 06:26N 45°40' E 013°44'0 0.0
2018-Jul-12 05:59N 45°40' E 013°44'0 0.0
2018-Jul-12 05:17N 45°40' E 013°44'0 0.0
2018-Jul-12 04:59N 45°40' E 013°44'0 0.0
2018-Jul-12 04:29N 45°40' E 013°44'0 0.1
2018-Jul-12 03:59N 45°40' E 013°44'1 1.2
2018-Jul-12 03:31N 45°39' E 013°43'3 5.9
2018-Jul-12 03:00N 45°38' E 013°39'4 8.2
2018-Jul-12 02:31N 45°36' E 013°34'4 8.5
2018-Jul-12 02:00N 45°34' E 013°29'4 8.2
2018-Jul-12 01:31N 45°31' E 013°24'4 7.3
2018-Jul-12 01:01N 45°29' E 013°20'4 7.4
2018-Jul-12 00:30N 45°27' E 013°16'4 7.3
2018-Jul-12 00:00N 45°25' E 013°11'3 5.9
2018-Jul-11 23:30N 45°22' E 013°09'4 7.5
2018-Jul-11 23:01N 45°19' E 013°11'4 7.7
2018-Jul-11 22:30N 45°15' E 013°12'4 7.9
2018-Jul-11 22:00N 45°11' E 013°13'4 7.8
2018-Jul-11 21:30N 45°07' E 013°14'4 7.5
2018-Jul-11 21:00N 45°04' E 013°16'4 7.6
2018-Jul-11 20:31N 45°01' E 013°19'4 7.6
2018-Jul-11 20:00N 44°57' E 013°22'4 7.8
2018-Jul-11 19:30N 44°54' E 013°25'4 8.1
2018-Jul-11 19:00N 44°51' E 013°28'4 8.0
2018-Jul-11 18:30N 44°47' E 013°31'4 7.9
2018-Jul-11 18:00N 44°44' E 013°34'4 7.9
2018-Jul-11 17:30N 44°41' E 013°37'4 7.6
2018-Jul-11 17:00N 44°37' E 013°39'4 7.2
2018-Jul-11 16:29N 44°34' E 013°42'3 7.2
2018-Jul-11 16:00N 44°31' E 013°45'5 7.3
2018-Jul-11 15:18N 44°27' E 013°49'2 7.6
2018-Jul-11 15:00N 44°25' E 013°50'4 7.5
2018-Jul-11 14:30N 44°22' E 013°53'4 7.3
2018-Jul-11 14:01N 44°19' E 013°56'4 7.3
2018-Jul-11 13:31N 44°16' E 013°59'4 7.4
2018-Jul-11 13:00N 44°13' E 014°02'4 7.5
2018-Jul-11 12:30N 44°10' E 014°05'7 7.6
2018-Jul-11 11:33N 44°04' E 014°11'1 7.6
2018-Jul-11 11:25N 44°03' E 014°12'3 7.6
2018-Jul-11 11:01N 44°01' E 014°14'  
2018-Jul-07 12:57N 37°03' E 023°32'4 8.3
2018-Jul-07 12:30N 37°06' E 023°35'10 8.6
2018-Jul-07 11:19N 37°14' E 023°43'  

Dump ship's entire track history